Friday, January 19, 2018, 2:27 AM EST
Back to Local

KDSV, Dansville Municipal Airport

Location: Dansville, NY, United States Lat: 42.567
Local Time: 2:27 AM EST ( 7:27 GMT) Lon: -77.717
Time Zone: US/Eastern Elev: 662 ft

Show me the last for .
Show Coded

Time T Td Feel RH Dir Speed Gust Alt SLP Vis Weather Sky Remarks
2018-01-19 01:54 15 10 9 79 160° 3 - 29.95 30.01 10 CLR None
2018-01-19 00:54 18 10 13 70 170° 3 - 29.95 30.01 10 CLR 6-hr Min Temp (1am): 12.9°F
6-hr Max Temp (1am): 21.9°F
2018-01-18 23:54 22 12 17 65 170° 3 - 29.96 30.01 10 CLR 24-hr Min Temp (12am): 3.0°F
24-hr Max Temp (12am): 23.0°F
2018-01-18 22:54 18 10 8 70 180° 8 - 29.96 30.02 10 CLR None
2018-01-18 21:54 15 8 4 73 150° 8 - 29.97 30.03 9 CLR None
2018-01-18 20:54 15 8 5 73 160° 7 - 30.00 30.06 10 CLR None
2018-01-18 19:54 14 8 - 76 - Calm - 30.02 30.09 10 CLR None
2018-01-18 18:54 14 7 8 73 170° 3 - 30.01 30.08 9 CLR 6-hr Min Temp (7pm): 12.9°F
6-hr Max Temp (7pm): 23.0°F
2018-01-18 17:54 15 8 - 73 - Calm - 30.00 30.07 9 CLR None
2018-01-18 16:54 21 10 - 61 - Calm - 30.01 30.07 10 FEW033 None
2018-01-18 15:54 23 10 12 56 310° 12 - 30.02 30.09 10 CLR None
2018-01-18 14:54 23 9 17 54 280° 5 - 30.02 30.08 10 BKN032 None
2018-01-18 13:54 22 9 - 56 - - - 30.03 30.09 10 OVC031 None
2018-01-18 12:54 21 8 15 56 260° 5 - 30.05 30.11 10 OVC030 6-hr Min Temp (1pm): 3.0°F
6-hr Max Temp (1pm): 21.0°F
2018-01-18 11:54 20 7 4 56 280° 13 21 30.07 30.13 10 OVC030 None
2018-01-18 10:54 19 7 12 58 Variable 5 - 30.10 30.16 10 OVC030 None
2018-01-18 09:54 18 6 9 58 280° 7 - 30.08 30.15 10 OVC031 None
2018-01-18 08:54 9 2 2 72 10° 3 - 30.07 30.14 10 BKN034 None
2018-01-18 07:54 5 0 - 79 - Calm - 30.07 30.14 9 CLR None
2018-01-18 06:54 7 1 -2 75 170° 5 - 30.06 30.13 10 CLR 6-hr Min Temp (7am): 7.0°F
6-hr Max Temp (7am): 12.9°F
2018-01-18 05:54 9 1 -1 69 150° 6 - 30.06 30.13 10 CLR None
2018-01-18 04:54 10 2 -2 69 160° 8 - 30.07 30.13 10 CLR None
2018-01-18 03:54 12 2 2 63 150° 7 - 30.07 30.13 10 CLR None
2018-01-18 02:54 13 3 1 63 120° 9 - 30.08 30.14 10 CLR None

Support USWX by starting your Amazon purchase here.